Fuglebjerg, Denmark
Current Conditions -  °F | °C
As of 9:20 PM on Saturday 20 Dec 2014 (Local Time) from EKRK Reporting Station
Clear Clear  
Wind Chill: 31°   Ceiling: Unl
Heat Index: 39°   Visibility: 6mi
Dew Point: 34°   Wind: 15mph
Humidity: 81%   Direction: 300°WNW
Pressure: 29.65"   Gusts: NA
Location:  55.31°N, 11.55°E
Report Text: EKRK 202020Z AUTO 30013KT 9999NDV NCD 04/01 Q1004
Loading
Personal Weather Stations






























Interactive Weather Map New forecast layout! Learn more

10-Day Weather Forecast

Advertisements
Track Severe Weather on mobile